Time;durP1;ratioP1;P1;durP2;ratioP2;P2;SDS_P1;SDS_P2;PMS_P1;PMS_P2;Temp;Humidity;BMP_temperature;BMP_pressure;BME280_temperature;BME280_humidity;BME280_pressure;Samples;Min_cycle;Max_cycle;Signal;HPM_P1;HPM_P2
2022/03/19 00:01:49;;;;;;;7.63;5.90;;;;;;;19.44;45.40;99136.53;10550703;28;20039;-60
2022/03/19 00:07:08;;;;;;;7.20;5.80;;;;;;;19.43;45.17;99134.94;10538050;28;20060;-60
2022/03/19 00:12:28;;;;;;;7.47;6.30;;;;;;;19.43;45.28;99134.94;10551155;28;20051;-61
2022/03/19 00:17:47;;;;;;;6.13;5.63;;;;;;;19.42;45.15;99141.41;10551176;28;20032;-60
2022/03/19 00:23:07;;;;;;;7.40;6.22;;;;;;;19.41;45.22;99137.09;10537561;28;20048;-62
2022/03/19 00:28:26;;;;;;;6.90;5.97;;;;;;;19.41;44.93;99141.69;10507568;28;20055;-59
2022/03/19 00:33:46;;;;;;;7.65;5.85;;;;;;;19.40;45.10;99127.34;10531800;28;20048;-59
2022/03/19 00:39:05;;;;;;;6.88;5.40;;;;;;;19.39;45.01;99125.72;10532830;28;20460;-59
2022/03/19 00:44:25;;;;;;;8.45;6.30;;;;;;;19.38;44.95;99121.38;10515567;28;20048;-59
2022/03/19 00:49:44;;;;;;;6.80;6.10;;;;;;;19.36;45.07;99118.13;10536264;28;20051;-59
2022/03/19 00:55:05;;;;;;;6.68;5.80;;;;;;;19.35;45.23;99108.41;10508058;28;20486;-59
2022/03/19 01:00:26;;;;;;;6.55;5.88;;;;;;;19.33;45.17;99108.69;10495215;28;20059;-59
2022/03/19 01:05:46;;;;;;;7.45;6.00;;;;;;;19.32;45.14;99111.66;10508073;28;20044;-59
2022/03/19 01:11:06;;;;;;;6.75;5.93;;;;;;;19.31;45.11;99110.03;10514567;28;20064;-59
2022/03/19 01:16:26;;;;;;;6.55;5.65;;;;;;;19.31;45.15;99110.03;10499715;28;20053;-59
2022/03/19 01:21:45;;;;;;;6.68;5.70;;;;;;;19.29;45.11;99095.97;10501588;28;20052;-59
2022/03/19 01:27:05;;;;;;;6.40;5.63;;;;;;;19.27;45.14;99087.31;10515442;28;20648;-59
2022/03/19 01:32:24;;;;;;;6.18;5.57;;;;;;;19.27;45.01;99084.63;10517713;28;20510;-59
2022/03/19 01:37:44;;;;;;;6.20;5.60;;;;;;;19.26;45.08;99091.09;10513395;28;20060;-59
2022/03/19 01:43:03;;;;;;;6.35;5.75;;;;;;;19.25;44.85;99086.75;10537458;28;20572;-59
2022/03/19 01:48:25;;;;;;;5.78;5.18;;;;;;;19.24;44.85;99077.03;10543080;28;20457;-59
2022/03/19 01:53:45;;;;;;;6.28;5.28;;;;;;;19.22;44.94;99082.69;10542868;28;20048;-59
2022/03/19 01:59:06;;;;;;;5.78;5.18;;;;;;;19.22;44.90;99073.78;10542126;28;20059;-59
2022/03/19 02:04:25;;;;;;;7.05;5.50;;;;;;;19.20;44.85;99070.53;10541740;28;20047;-59
2022/03/19 02:09:45;;;;;;;6.43;5.30;;;;;;;19.20;44.79;99062.44;10532641;28;20052;-59
2022/03/19 02:15:05;;;;;;;6.72;5.28;;;;;;;19.19;44.66;99060.78;10525407;28;20059;-59
2022/03/19 02:20:26;;;;;;;5.50;5.00;;;;;;;19.16;44.68;99052.16;10542672;28;20687;-59
2022/03/19 02:25:48;;;;;;;6.50;5.45;;;;;;;19.15;44.76;99047.84;10540815;28;20596;-59
2022/03/19 02:31:08;;;;;;;6.00;5.15;;;;;;;19.14;44.69;99046.19;10541343;28;20559;-59
2022/03/19 02:36:27;;;;;;;5.45;4.85;;;;;;;19.13;44.72;99046.47;10554829;28;20047;-59
2022/03/19 02:41:49;;;;;;;5.72;5.13;;;;;;;19.12;44.80;99047.56;10540299;28;20052;-59
2022/03/19 02:47:08;;;;;;;6.18;5.30;;;;;;;19.11;44.76;99041.34;10540953;28;20044;-59
2022/03/19 02:52:28;;;;;;;5.88;5.20;;;;;;;19.10;44.60;99038.91;10540249;28;20093;-59
2022/03/19 02:57:47;;;;;;;5.60;5.10;;;;;;;19.09;44.72;99034.56;10540343;28;20406;-59
2022/03/19 03:03:07;;;;;;;5.88;5.22;;;;;;;19.08;44.61;99041.06;10539709;28;20479;-58
2022/03/19 03:08:26;;;;;;;5.25;4.75;;;;;;;19.07;44.57;99037.56;10539419;28;20063;-59
2022/03/19 03:13:46;;;;;;;6.22;5.13;;;;;;;19.05;44.70;99031.63;10515463;28;20090;-59
2022/03/19 03:19:06;;;;;;;5.47;4.80;;;;;;;19.06;44.52;99043.22;10540219;28;20541;-59
2022/03/19 03:24:25;;;;;;;5.60;5.10;;;;;;;19.04;44.43;99038.06;10539328;28;20052;-59
2022/03/19 03:29:45;;;;;;;5.25;4.78;;;;;;;19.02;44.50;99042.13;10539015;28;20092;-59
2022/03/19 03:35:05;;;;;;;5.70;5.00;;;;;;;19.01;44.55;99041.28;10538654;28;20048;-59
2022/03/19 03:40:25;;;;;;;5.15;4.65;;;;;;;19.00;44.29;99036.19;10538353;28;20075;-59
2022/03/19 03:45:44;;;;;;;4.95;4.43;;;;;;;18.99;44.25;99029.94;10538438;28;20048;-59
2022/03/19 03:51:06;;;;;;;5.20;4.70;;;;;;;18.98;44.36;99028.34;10551861;28;20517;-59
2022/03/19 03:56:26;;;;;;;4.90;4.47;;;;;;;18.95;44.35;99027.00;10550382;28;20044;-60
2022/03/19 04:01:46;;;;;;;5.30;4.80;;;;;;;18.94;44.13;99019.94;10537297;28;20040;-59
2022/03/19 04:07:06;;;;;;;5.07;4.60;;;;;;;18.94;44.17;99011.03;10536943;28;20048;-59
2022/03/19 04:12:25;;;;;;;5.45;4.90;;;;;;;18.92;44.16;99000.50;10530127;28;20048;-59
2022/03/19 04:17:45;;;;;;;4.95;4.45;;;;;;;18.91;44.28;98995.34;10537262;28;20043;-58
2022/03/19 04:23:04;;;;;;;4.88;4.38;;;;;;;18.89;44.06;98978.59;10537308;28;20407;-59
2022/03/19 04:28:24;;;;;;;5.50;4.50;;;;;;;18.89;44.14;98976.72;10536723;28;20056;-59
2022/03/19 04:33:43;;;;;;;5.40;4.45;;;;;;;18.88;44.03;98983.22;10536085;28;20048;-59
2022/03/19 04:39:04;;;;;;;4.60;4.15;;;;;;;18.87;44.03;98983.47;10536449;28;20052;-59
2022/03/19 04:44:24;;;;;;;5.18;4.68;;;;;;;18.86;44.09;98992.66;10535509;28;20060;-59
2022/03/19 04:49:43;;;;;;;5.30;4.60;;;;;;;18.86;43.79;98987.25;10536049;28;20052;-59
2022/03/19 04:55:03;;;;;;;5.00;4.57;;;;;;;18.85;43.98;98985.63;10536201;28;20557;-59
2022/03/19 05:00:22;;;;;;;5.03;4.50;;;;;;;18.83;43.88;98987.78;10536795;28;20414;-58
2022/03/19 05:05:42;;;;;;;6.40;4.35;;;;;;;18.81;43.73;98973.72;10536305;28;20367;-59
2022/03/19 05:11:16;;;;;;;4.93;4.43;;;;;;;18.78;43.73;98973.16;10517862;28;20083;-59
2022/03/19 05:16:36;;;;;;;5.30;4.40;;;;;;;18.77;43.60;98976.94;10535461;28;20479;-59
2022/03/19 05:21:55;;;;;;;4.95;4.35;;;;;;;18.78;43.73;98970.47;10539173;28;20032;-59
2022/03/19 05:27:15;;;;;;;4.82;4.35;;;;;;;18.76;43.66;98959.13;10534116;28;20074;-59
2022/03/19 05:32:36;;;;;;;4.93;4.22;;;;;;;18.75;43.58;98970.19;10534634;28;20411;-59
2022/03/19 05:37:59;;;;;;;5.38;4.85;;;;;;;18.75;43.63;98967.47;10518931;28;20122;-58
2022/03/19 05:43:18;;;;;;;4.85;4.35;;;;;;;18.73;43.61;98965.03;10531484;28;20637;-59
2022/03/19 05:48:38;;;;;;;4.80;4.35;;;;;;;18.72;43.62;98968.81;10547823;28;20479;-59
2022/03/19 05:53:57;;;;;;;4.95;4.45;;;;;;;18.72;43.71;98968.81;10534445;28;20052;-59
2022/03/19 05:59:16;;;;;;;4.90;4.40;;;;;;;18.72;43.80;98966.13;10538973;28;20040;-59
2022/03/19 06:04:38;;;;;;;19.42;17.17;;;;;;;-146.19;100.00;65364.44;10539480;28;20040;-59
2022/03/19 06:09:58;;;;;;;19.35;13.77;;;;;;;-146.19;100.00;65364.44;10539521;28;20047;-59
2022/03/19 06:15:17;;;;;;;12.02;10.02;;;;;;;18.72;43.80;98966.13;10555537;28;20044;-60
2022/03/19 06:20:37;;;;;;;13.70;10.57;;;;;;;18.16;38.43;98952.41;10540671;28;20048;-59
2022/03/19 06:25:57;;;;;;;12.02;10.18;;;;;;;18.31;38.37;98957.09;10540274;28;20420;-59
2022/03/19 06:31:16;;;;;;;12.88;9.52;;;;;;;18.40;38.88;98952.78;10540876;28;20067;-58
2022/03/19 06:42:14;;;;;;;10.23;8.23;;;;;;;18.50;39.38;98957.41;10537539;28;20550;-59
2022/03/19 06:47:34;;;;;;;11.68;8.57;;;;;;;18.52;39.42;98963.34;10537067;28;20052;-58
2022/03/19 06:52:53;;;;;;;12.68;8.25;;;;;;;18.53;39.62;98956.88;10551478;28;20105;-57
2022/03/19 06:58:13;;;;;;;10.30;8.32;;;;;;;18.56;39.48;98954.47;10536399;28;20620;-59
2022/03/19 07:03:35;;;;;;;12.95;8.05;;;;;;;18.58;39.71;98944.22;10537094;28;20051;-59
2022/03/19 07:08:55;;;;;;;11.93;8.38;;;;;;;18.61;39.56;98940.16;10538982;28;20047;-59
2022/03/19 07:14:15;;;;;;;9.63;8.18;;;;;;;18.65;39.63;98943.16;10538597;28;20419;-59
2022/03/19 07:19:34;;;;;;;14.45;10.98;;;;;;;18.65;37.55;98935.84;10548158;28;20040;-58
2022/03/19 07:24:54;;;;;;;12.93;10.57;;;;;;;18.55;36.40;98939.34;10530655;28;20052;-60
2022/03/19 07:30:14;;;;;;;12.15;9.80;;;;;;;18.63;38.44;98938.00;10539475;28;20081;-58
2022/03/19 07:35:33;;;;;;;12.02;9.48;;;;;;;18.69;38.58;98942.34;10538926;28;20505;-58
2022/03/19 07:46:30;;;;;;;14.47;10.03;;;;;;;18.80;38.19;98934.28;10533864;28;20051;-57
2022/03/19 07:51:55;;;;;;;15.32;10.25;;;;;;;18.86;38.53;98936.75;10536534;28;20052;-56
2022/03/19 07:57:14;;;;;;;14.52;9.40;;;;;;;18.94;38.96;98940.81;10547873;28;20036;-57
2022/03/19 08:02:34;;;;;;;12.10;9.57;;;;;;;19.01;39.32;98937.84;10534766;28;20535;-58
2022/03/19 08:07:53;;;;;;;12.95;9.20;;;;;;;19.09;39.78;98935.44;10550294;28;20036;-57
2022/03/19 08:13:13;;;;;;;12.98;8.88;;;;;;;19.14;40.20;98926.50;10548982;28;20044;-58
2022/03/19 08:18:33;;;;;;;9.98;8.15;;;;;;;19.20;40.54;98928.13;10538418;28;20044;-57
2022/03/19 08:23:52;;;;;;;10.90;7.82;;;;;;;19.25;40.81;98928.16;10537281;28;20110;-57
2022/03/19 08:29:12;;;;;;;10.68;8.18;;;;;;;19.30;41.08;98930.03;10535333;28;20044;-57
2022/03/19 08:34:31;;;;;;;11.48;7.45;;;;;;;19.30;41.08;98930.03;10544230;28;20040;-57
2022/03/19 08:45:30;;;;;;;12.73;7.97;;;;;;;19.47;40.92;98927.06;10535073;28;20068;-57
2022/03/19 08:50:49;;;;;;;10.63;7.50;;;;;;;19.53;41.03;98926.75;10539346;28;20060;-56
2022/03/19 08:56:09;;;;;;;17.42;10.80;;;;;;;19.56;38.16;98914.59;10555073;28;20063;-58
2022/03/19 09:01:28;;;;;;;23.35;14.73;;;;;;;19.59;40.29;98918.66;10558537;28;20044;-56
2022/03/19 09:06:48;;;;;;;19.33;14.40;;;;;;;19.64;41.19;98902.41;10558934;28;20117;-57
2022/03/19 09:12:09;;;;;;;25.58;16.30;;;;;;;19.70;42.04;98906.75;10534090;28;20052;-57
2022/03/19 09:17:29;;;;;;;30.42;16.08;;;;;;;19.73;42.83;98895.41;10533835;28;20052;-58
2022/03/19 09:22:48;;;;;;;40.13;22.27;;;;;;;19.75;43.05;98888.63;10533348;28;20078;-57
2022/03/19 09:28:08;;;;;;;25.17;15.10;;;;;;;19.77;42.55;98884.84;10540670;28;20048;-57
2022/03/19 09:33:28;;;;;;;1104.78;357.35;;;;;;;19.78;41.90;98873.75;10512713;28;20057;-59
2022/03/19 09:38:48;;;;;;;317.25;100.32;;;;;;;19.82;41.75;98876.72;10509862;28;20052;-54
2022/03/19 09:44:08;;;;;;;174.05;56.28;;;;;;;19.82;40.18;98872.13;10503846;28;20055;-57
2022/03/19 09:49:28;;;;;;;123.72;42.38;;;;;;;19.85;39.33;98862.63;10502190;28;20052;-55
2022/03/19 09:54:47;;;;;;;109.55;36.53;;;;;;;19.84;38.95;98859.13;10498493;28;20044;-56
2022/03/19 10:00:08;;;;;;;93.93;33.20;;;;;;;19.86;38.40;98864.28;10499254;28;20057;-55
2022/03/19 10:11:15;;;;;;;69.55;26.40;;;;;;;19.89;38.56;98859.09;10510341;28;20094;-56
2022/03/19 10:16:35;;;;;;;60.08;23.85;;;;;;;19.90;38.35;98846.41;10495084;28;20060;-56
2022/03/19 10:22:06;;;;;;;64.18;25.40;;;;;;;19.91;39.37;98846.09;10512504;28;20049;-55
2022/03/19 10:27:31;;;;;;;52.45;22.83;;;;;;;19.92;38.73;98847.75;10494694;28;20390;-55
2022/03/19 10:32:53;;;;;;;50.60;20.23;;;;;;;19.93;38.88;98835.84;10470494;28;20049;-57
2022/03/19 10:38:21;;;;;;;41.67;18.52;;;;;;;19.93;39.15;98843.13;10509821;28;20048;-56
2022/03/19 10:43:44;;;;;;;41.85;17.55;;;;;;;19.92;39.25;98833.41;10464463;28;20109;-55
2022/03/19 10:49:11;;;;;;;39.50;17.90;;;;;;;19.92;40.30;98828.81;10496850;28;20056;-57
2022/03/19 10:54:30;;;;;;;32.15;16.35;;;;;;;19.93;38.76;98830.44;10506040;28;20403;-57
2022/03/19 10:59:50;;;;;;;27.17;13.45;;;;;;;19.92;39.72;98826.09;10526268;28;20102;-56
2022/03/19 11:05:10;;;;;;;32.47;13.35;;;;;;;19.93;39.11;98813.38;10505348;28;20131;-54
2022/03/19 11:10:30;;;;;;;21.63;11.45;;;;;;;19.95;37.43;98803.91;10519824;28;20451;-57
2022/03/19 11:15:52;;;;;;;16.27;10.27;;;;;;;19.95;36.74;98805.78;10497330;28;20401;-58
2022/03/19 11:21:14;;;;;;;19.83;9.80;;;;;;;19.93;35.54;98784.44;10478944;28;20040;-58
2022/03/19 11:26:33;;;;;;;16.83;10.52;;;;;;;19.93;38.28;98787.16;10491706;28;20094;-57
2022/03/19 11:31:58;;;;;;;25.83;12.32;;;;;;;19.96;40.82;98766.84;10490284;28;20064;-57
2022/03/19 11:37:17;;;;;;;21.20;10.13;;;;;;;20.00;42.23;98775.22;10485760;28;20279;-58
2022/03/19 11:42:50;;;;;;;17.08;9.50;;;;;;;20.03;43.67;98763.81;10481214;28;20044;-58
2022/03/19 11:48:48;;;;;;;15.23;9.35;;;;;;;20.05;43.76;98773.28;10484221;28;20407;-60
2022/03/19 11:54:19;;;;;;;12.60;8.82;;;;;;;19.74;27.69;98778.03;10477762;28;20045;-55
2022/03/19 11:59:44;;;;;;;14.27;7.82;;;;;;;19.68;35.25;98762.88;10488804;28;20045;-60
2022/03/19 12:05:15;;;;;;;10.82;6.90;;;;;;;19.78;36.64;98752.06;10511313;28;20079;-58
2022/03/19 12:10:55;;;;;;;12.40;6.68;;;;;;;19.87;37.17;98753.06;10470684;28;20124;-58
2022/03/19 12:16:16;;;;;;;;;;;;;;;19.89;37.17;98756.31;10455875;28;20049;-56
2022/03/19 12:21:43;;;;;;;10.00;6.53;;;;;;;19.93;37.84;98732.22;10488038;28;19924;-56
2022/03/19 12:27:02;;;;;;;17.25;7.07;;;;;;;19.93;37.50;98738.47;10487014;28;20056;-61
2022/03/19 12:32:22;;;;;;;10.40;8.20;;;;;;;19.73;27.63;98730.44;10494857;28;20051;-61
2022/03/19 12:37:49;;;;;;;8.98;7.57;;;;;;;19.53;23.93;98729.41;10508808;28;20063;-61
2022/03/19 12:43:09;;;;;;;8.40;7.50;;;;;;;19.36;23.09;98718.94;10491402;28;20048;-61
2022/03/19 12:48:32;;;;;;;9.35;7.72;;;;;;;19.26;21.84;98720.88;10532875;28;20056;-61
2022/03/19 12:53:53;;;;;;;9.75;7.82;;;;;;;19.22;21.33;98720.63;10535110;28;20387;-61
2022/03/19 12:59:21;;;;;;;9.55;7.65;;;;;;;19.19;21.76;98707.66;10494633;28;20060;-61
2022/03/19 13:04:44;;;;;;;10.13;7.22;;;;;;;19.16;24.38;98708.22;10511473;28;20055;-59
2022/03/19 13:10:13;;;;;;;9.77;7.40;;;;;;;19.27;26.70;98712.50;10509525;28;20052;-59
2022/03/19 13:15:33;;;;;;;10.85;7.72;;;;;;;19.35;27.54;98706.53;10515567;28;20041;-59
2022/03/19 13:21:07;;;;;;;12.65;7.03;;;;;;;19.43;27.54;98696.22;10519054;28;20052;-59
2022/03/19 13:26:28;;;;;;;8.88;7.13;;;;;;;19.45;24.51;98700.25;10523313;28;20455;-59
2022/03/19 13:31:47;;;;;;;12.48;8.00;;;;;;;19.47;27.82;98689.97;10532039;28;20063;-60
2022/03/19 13:37:09;;;;;;;11.65;7.03;;;;;;;19.52;27.96;98681.03;10521730;28;20463;-60
2022/03/19 13:42:30;;;;;;;8.07;5.78;;;;;;;19.56;27.76;98693.72;10489524;28;20136;-59
2022/03/19 13:47:52;;;;;;;11.20;6.72;;;;;;;19.62;28.93;98678.28;10469609;28;20052;-59
2022/03/19 13:53:11;;;;;;;9.20;6.13;;;;;;;19.66;28.78;98678.53;10486162;28;20060;-59
2022/03/19 13:58:31;;;;;;;9.73;6.57;;;;;;;19.72;29.56;98680.16;10484363;28;20045;-60
2022/03/19 14:03:50;;;;;;;9.95;5.63;;;;;;;19.75;30.53;98666.06;10495866;28;20048;-60
2022/03/19 14:09:10;;;;;;;10.05;5.45;;;;;;;19.81;31.41;98669.56;10489194;28;20581;-57
2022/03/19 14:14:36;;;;;;;8.45;5.75;;;;;;;19.84;32.08;98663.59;10511741;28;20055;-55
2022/03/19 14:19:55;;;;;;;8.95;5.60;;;;;;;19.87;32.64;98658.41;10525757;28;20056;-56
2022/03/19 14:25:15;;;;;;;10.18;5.72;;;;;;;19.91;34.36;98654.06;10471482;28;20055;-56
2022/03/19 14:30:35;;;;;;;8.43;5.18;;;;;;;19.93;34.59;98651.91;10498445;28;20059;-56
2022/03/19 14:36:02;;;;;;;7.90;5.28;;;;;;;19.96;35.00;98650.53;10497742;28;20059;-57
2022/03/19 14:41:25;;;;;;;8.52;5.13;;;;;;;19.99;34.94;98647.25;10492395;28;20056;-54
2022/03/19 14:46:44;;;;;;;7.43;4.85;;;;;;;20.02;35.42;98643.19;10502490;28;20412;-59
2022/03/19 14:52:04;;;;;;;6.72;4.85;;;;;;;20.06;35.59;98633.41;10498770;28;20079;-57
2022/03/19 14:57:23;;;;;;;7.80;4.90;;;;;;;20.08;35.85;98642.84;10498997;28;20462;-62
2022/03/19 15:02:43;;;;;;;6.55;4.57;;;;;;;20.11;36.19;98644.16;10511201;28;20364;-60
2022/03/19 15:08:03;;;;;;;6.03;4.38;;;;;;;20.14;36.41;98635.50;10496743;28;20049;-60
2022/03/19 15:13:24;;;;;;;7.35;4.82;;;;;;;20.14;36.34;98630.09;10503169;28;20037;-61
2022/03/19 15:18:43;;;;;;;7.80;4.40;;;;;;;20.16;36.71;98627.91;10468555;28;20411;-58
2022/03/19 15:24:03;;;;;;;8.75;4.40;;;;;;;20.18;37.13;98624.91;10476733;28;20415;-56
2022/03/19 15:29:23;;;;;;;7.05;4.25;;;;;;;20.19;37.32;98627.34;10481718;28;20110;-65
2022/03/19 15:34:42;;;;;;;8.73;4.03;;;;;;;20.19;37.95;98621.09;10481099;28;20060;-56
2022/03/19 15:40:03;;;;;;;8.55;4.50;;;;;;;20.21;38.20;98619.75;10455229;28;20594;-55
2022/03/19 15:45:23;;;;;;;5.25;4.05;;;;;;;20.19;38.31;98619.22;10480100;28;20052;-57
2022/03/19 15:50:42;;;;;;;8.07;4.30;;;;;;;20.19;38.17;98616.53;10478339;28;20415;-58
2022/03/19 15:56:02;;;;;;;10.30;4.07;;;;;;;20.19;38.40;98619.22;10495907;28;20048;-55
2022/03/19 16:01:22;;;;;;;7.75;4.18;;;;;;;20.20;38.62;98620.81;10511217;28;20151;-57
2022/03/19 16:06:42;;;;;;;9.88;5.60;;;;;;;20.14;31.59;98625.47;10467633;28;20049;-60
2022/03/19 16:12:01;;;;;;;9.60;6.13;;;;;;;20.02;28.79;98621.53;10471727;28;20056;-58
2022/03/19 16:17:21;;;;;;;10.20;5.38;;;;;;;20.01;32.30;98628.03;10494752;28;20043;-56
2022/03/19 16:22:40;;;;;;;7.28;5.20;;;;;;;20.04;32.87;98632.88;10484701;28;20053;-60
2022/03/19 16:28:00;;;;;;;6.88;4.57;;;;;;;20.05;33.76;98643.44;10472684;28;20053;-58
2022/03/19 16:33:20;;;;;;;6.10;4.47;;;;;;;20.06;34.44;98639.63;10514308;28;20102;-57
2022/03/19 16:38:40;;;;;;;23.83;9.07;;;;;;;20.08;35.73;98636.63;10504811;28;20376;-55
2022/03/19 16:44:00;;;;;;;114.00;65.10;;;;;;;20.08;36.72;98648.25;10482589;28;20040;-58
2022/03/19 16:49:19;;;;;;;44.38;21.67;;;;;;;20.09;37.15;98641.78;10496005;28;20051;-55
2022/03/19 16:54:40;;;;;;;32.67;16.70;;;;;;;20.11;37.41;98646.88;10453008;28;20059;-56
2022/03/19 17:00:00;;;;;;;29.23;15.43;;;;;;;20.13;38.04;98644.69;10480633;28;20057;-56
2022/03/19 17:05:20;;;;;;;26.35;13.30;;;;;;;20.14;38.45;98646.31;10496342;28;20499;-53
2022/03/19 17:10:39;;;;;;;29.02;14.75;;;;;;;20.14;41.10;98663.34;10493195;28;20052;-58
2022/03/19 17:15:58;;;;;;;26.50;14.85;;;;;;;20.15;41.28;98665.00;10523791;28;20048;-56
2022/03/19 17:21:18;;;;;;;26.80;14.90;;;;;;;20.17;44.08;98672.81;10520324;28;20063;-58
2022/03/19 17:26:38;;;;;;;23.73;14.13;;;;;;;20.18;45.25;98679.03;10483414;28;20578;-60
2022/03/19 17:31:57;;;;;;;25.88;13.95;;;;;;;20.17;44.78;98675.53;10481146;28;20052;-60
2022/03/19 17:37:17;;;;;;;24.05;13.23;;;;;;;20.19;44.36;98681.47;10513339;28;20803;-60
2022/03/19 17:42:36;;;;;;;21.27;12.27;;;;;;;20.19;44.49;98692.28;10477951;28;20064;-58
2022/03/19 17:47:56;;;;;;;20.10;11.73;;;;;;;20.19;44.40;98703.13;10487949;28;20379;-57
2022/03/19 17:53:15;;;;;;;19.65;14.18;;;;;;;19.85;30.57;98701.16;10494669;28;20040;-57
2022/03/19 17:58:35;;;;;;;16.88;13.57;;;;;;;19.30;25.03;98700.31;10499977;28;20059;-57
2022/03/19 18:03:55;;;;;;;18.63;13.30;;;;;;;19.34;30.82;98704.88;10513742;28;20540;-57
2022/03/19 18:09:14;;;;;;;18.95;11.38;;;;;;;19.52;32.43;98713.47;10494659;28;20052;-59
2022/03/19 18:14:33;;;;;;;14.70;10.88;;;;;;;19.62;33.22;98710.75;10496739;28;20041;-58
2022/03/19 18:19:53;;;;;;;15.65;9.75;;;;;;;19.69;33.93;98711.22;10490445;28;20637;-58
2022/03/19 18:25:12;;;;;;;13.18;9.90;;;;;;;19.73;34.44;98712.31;10490361;28;20631;-57
2022/03/19 18:30:32;;;;;;;14.85;9.68;;;;;;;19.76;34.78;98716.38;10525972;28;20052;-57
2022/03/19 18:35:51;;;;;;;12.32;9.20;;;;;;;19.78;35.40;98714.19;10516235;28;20091;-57
2022/03/19 18:41:11;;;;;;;15.43;9.32;;;;;;;19.78;35.26;98713.38;10511704;28;20056;-57
2022/03/19 18:46:31;;;;;;;11.20;8.50;;;;;;;19.77;35.78;98709.88;10502424;28;20064;-57
2022/03/19 18:51:50;;;;;;;11.73;8.63;;;;;;;19.79;36.05;98720.41;10499304;28;20496;-58
2022/03/19 18:57:10;;;;;;;11.63;9.10;;;;;;;19.78;36.14;98711.50;10498486;28;20357;-58
2022/03/19 19:02:29;;;;;;;11.00;8.57;;;;;;;19.79;36.33;98715.00;10501923;28;20403;-58
2022/03/19 19:07:48;;;;;;;11.55;8.15;;;;;;;19.79;36.52;98715.81;10516369;28;20090;-58
2022/03/19 19:13:08;;;;;;;15.00;11.07;;;;;;;19.78;33.34;98721.47;10497523;28;20057;-58
2022/03/19 19:18:27;;;;;;;12.63;8.50;;;;;;;19.73;35.87;98727.75;10499704;28;20399;-59
2022/03/19 19:23:47;;;;;;;12.90;7.97;;;;;;;19.73;36.35;98727.75;10503248;28;20648;-54
2022/03/19 19:29:06;;;;;;;14.23;8.02;;;;;;;19.74;37.18;98729.38;10497598;28;20498;-54
2022/03/19 19:34:26;;;;;;;12.00;8.15;;;;;;;19.74;37.49;98730.16;10495809;28;20098;-57
2022/03/19 19:39:45;;;;;;;12.00;7.80;;;;;;;19.74;37.88;98726.66;10485993;28;20068;-59
2022/03/19 19:45:05;;;;;;;15.73;8.07;;;;;;;19.74;38.18;98729.38;10486514;28;20499;-57
2022/03/19 19:50:26;;;;;;;12.35;7.80;;;;;;;19.73;38.54;98722.31;10500094;28;20067;-60
2022/03/19 19:55:46;;;;;;;12.65;7.60;;;;;;;19.74;38.67;98726.66;10498780;28;20494;-55
2022/03/19 20:01:11;;;;;;;17.08;8.20;;;;;;;19.75;39.28;98733.69;10482085;28;20060;-62
2022/03/19 20:07:38;;;;;;;12.93;7.68;;;;;;;19.73;39.51;98727.75;10483859;28;20074;-62
2022/03/19 20:12:10;;;;;;;11.15;7.35;;;;;;;19.72;39.68;98720.72;10487393;28;20060;-65
2022/03/19 20:17:30;;;;;;;10.55;7.50;;;;;;;19.72;39.93;98731.53;10478733;28;20052;-64
2022/03/19 20:22:50;;;;;;;10.13;6.75;;;;;;;19.72;40.38;98729.66;10455812;28;20464;-55
2022/03/19 20:28:11;;;;;;;14.05;7.65;;;;;;;19.72;40.40;98723.44;10492425;28;20056;-59
2022/03/19 20:33:31;;;;;;;11.05;7.30;;;;;;;19.71;40.69;98724.47;10484163;28;20055;-57
2022/03/19 20:38:50;;;;;;;11.75;6.85;;;;;;;19.71;41.00;98735.28;10492709;28;20092;-60
2022/03/19 20:44:10;;;;;;;10.20;7.32;;;;;;;19.71;41.12;98738.00;10474142;28;20049;-58
2022/03/19 20:55:09;;;;;;;11.38;7.28;;;;;;;19.70;41.38;98729.09;10490105;28;20044;-56
2022/03/19 21:00:30;;;;;;;10.00;6.95;;;;;;;19.71;41.25;98729.88;10485502;28;20052;-58
2022/03/19 21:05:50;;;;;;;8.77;6.78;;;;;;;19.71;41.17;98735.28;10491470;28;20055;-58
2022/03/19 21:16:49;;;;;;;8.40;6.07;;;;;;;19.68;41.26;98722.31;10492963;28;20048;-58
2022/03/19 21:22:09;;;;;;;8.10;5.88;;;;;;;19.67;41.15;98726.13;10492367;28;20048;-59
2022/03/19 21:27:30;;;;;;;8.82;6.22;;;;;;;19.68;41.19;98722.31;10500883;28;20041;-58
2022/03/19 21:32:51;;;;;;;8.02;5.93;;;;;;;19.66;41.08;98725.31;10510225;28;20036;-57
2022/03/19 21:38:11;;;;;;;8.73;5.88;;;;;;;19.65;40.90;98722.88;10475639;28;20529;-58
2022/03/19 21:43:30;;;;;;;9.27;6.15;;;;;;;19.63;40.97;98722.34;10492666;28;20605;-59
2022/03/19 21:48:49;;;;;;;8.85;6.03;;;;;;;19.64;40.85;98718.56;10493388;28;20049;-59
2022/03/19 21:54:09;;;;;;;10.20;6.10;;;;;;;19.61;40.95;98713.72;10479816;28;20104;-59
2022/03/19 21:59:30;;;;;;;9.68;6.03;;;;;;;19.61;40.83;98722.63;10466199;28;20087;-58
2022/03/19 22:04:50;;;;;;;6.90;5.50;;;;;;;19.60;40.71;98712.91;10481384;28;20079;-59
2022/03/19 22:10:10;;;;;;;7.82;5.68;;;;;;;19.58;40.79;98720.47;10486707;28;20452;-59
2022/03/19 22:15:30;;;;;;;6.38;5.10;;;;;;;19.56;40.63;98718.06;10482593;28;20511;-58
2022/03/19 22:20:50;;;;;;;7.47;5.32;;;;;;;19.55;40.59;98711.03;10486605;28;20045;-59
2022/03/19 22:26:10;;;;;;;7.82;5.25;;;;;;;19.54;40.65;98717.53;10484874;28;20052;-59
2022/03/19 22:31:29;;;;;;;6.15;5.20;;;;;;;19.53;40.67;98721.31;10490574;28;20487;-59
2022/03/19 22:36:49;;;;;;;7.72;5.00;;;;;;;19.52;40.63;98725.13;10477447;28;20439;-58
2022/03/19 22:42:09;;;;;;;6.97;5.18;;;;;;;19.52;40.69;98727.81;10471936;28;20056;-58
2022/03/19 22:47:28;;;;;;;7.05;5.20;;;;;;;19.51;40.55;98719.97;10472344;28;20052;-59
2022/03/19 22:52:49;;;;;;;5.97;4.53;;;;;;;19.50;40.51;98721.06;10490466;28;20373;-58
2022/03/19 22:58:09;;;;;;;6.22;4.90;;;;;;;19.47;40.70;98719.72;10499389;28;20086;-59
2022/03/19 23:03:31;;;;;;;5.32;4.38;;;;;;;19.48;40.64;98715.94;10518201;28;20044;-58
2022/03/19 23:09:08;;;;;;;7.78;4.90;;;;;;;19.46;40.64;98709.19;10499785;28;20056;-59
2022/03/19 23:14:27;;;;;;;6.10;4.82;;;;;;;19.44;40.69;98709.44;10479264;28;20049;-59
2022/03/19 23:19:47;;;;;;;6.50;4.65;;;;;;;19.44;40.54;98709.44;10506476;28;20044;-59
2022/03/19 23:25:09;;;;;;;6.30;4.82;;;;;;;19.42;40.48;98695.41;10488425;28;20048;-59
2022/03/19 23:30:30;;;;;;;5.03;4.22;;;;;;;19.42;40.62;98700.81;10474740;28;20129;-59
2022/03/19 23:35:50;;;;;;;6.88;4.70;;;;;;;19.39;40.61;98695.97;10500331;28;20056;-59
2022/03/19 23:41:10;;;;;;;5.28;4.28;;;;;;;19.39;40.51;98697.88;10511618;28;20059;-59
2022/03/19 23:46:30;;;;;;;5.53;4.20;;;;;;;19.39;40.48;98689.75;10496103;28;20052;-59
2022/03/19 23:51:49;;;;;;;5.97;4.65;;;;;;;19.37;40.38;98690.03;10493613;28;20111;-59
2022/03/19 23:57:09;;;;;;;6.97;4.47;;;;;;;19.35;40.40;98684.91;10493050;28;20048;-59
